Time;durP1;ratioP1;P1;durP2;ratioP2;P2;SDS_P1;SDS_P2;PMS_P1;PMS_P2;Temp;Humidity;BMP_temperature;BMP_pressure;BME280_temperature;BME280_humidity;BME280_pressure;Samples;Min_cycle;Max_cycle;Signal;HPM_P1;HPM_P2
2023/05/02 00:01:16;;;;;;;14.80;13.23;;;13.40;99.90;;;;;;5037284;28;20181;-65
2023/05/02 00:03:42;;;;;;;16.65;14.57;;;13.50;99.90;;;;;;5053231;28;20197;-66
2023/05/02 00:06:10;;;;;;;15.25;12.82;;;13.50;99.90;;;;;;5050915;28;20204;-65
2023/05/02 00:08:39;;;;;;;14.65;13.07;;;13.50;99.90;;;;;;5029586;28;20203;-65
2023/05/02 00:11:04;;;;;;;15.02;12.68;;;13.50;99.90;;;;;;5026696;28;20205;-65
2023/05/02 00:13:30;;;;;;;17.40;12.85;;;13.50;99.90;;;;;;5036684;28;20174;-66
2023/05/02 00:16:00;;;;;;;17.83;15.43;;;13.50;99.90;;;;;;5035179;28;20212;-65
2023/05/02 00:18:26;;;;;;;16.83;14.00;;;13.50;99.90;;;;;;5033431;28;20233;-66
2023/05/02 00:20:51;;;;;;;16.40;14.05;;;13.60;99.90;;;;;;5023804;28;20210;-66
2023/05/02 00:23:21;;;;;;;16.13;14.30;;;13.60;99.90;;;;;;5033732;28;20178;-65
2023/05/02 00:25:47;;;;;;;15.63;13.85;;;13.60;99.90;;;;;;5034799;28;20231;-65
2023/05/02 00:28:15;;;;;;;16.30;13.60;;;13.60;99.90;;;;;;5032057;28;20202;-64
2023/05/02 00:30:45;;;;;;;15.00;12.88;;;13.60;99.90;;;;;;5024227;28;20197;-65
2023/05/02 00:33:13;;;;;;;15.82;13.30;;;13.60;99.90;;;;;;5033487;28;20182;-66
2023/05/02 00:35:39;;;;;;;15.90;12.82;;;13.50;99.90;;;;;;5028682;28;20186;-66
2023/05/02 00:38:07;;;;;;;14.95;12.65;;;13.60;99.90;;;;;;5033288;28;20271;-66
2023/05/02 00:40:46;;;;;;;15.40;12.90;;;13.60;99.90;;;;;;5032276;28;20184;-65
2023/05/02 00:43:15;;;;;;;16.00;13.55;;;13.60;99.90;;;;;;5032575;28;20277;-66
2023/05/02 00:45:42;;;;;;;16.27;13.13;;;13.70;99.90;;;;;;5028277;28;20254;-64
2023/05/02 00:48:09;;;;;;;16.35;13.30;;;13.70;99.90;;;;;;5035129;28;20260;-66
2023/05/02 00:50:41;;;;;;;15.98;13.25;;;13.70;99.90;;;;;;5031731;28;20191;-65
2023/05/02 00:53:09;;;;;;;15.57;13.77;;;13.70;99.90;;;;;;5036113;28;20272;-64
2023/05/02 00:55:39;;;;;;;16.88;13.73;;;13.70;99.90;;;;;;5035108;28;20186;-65
2023/05/02 00:58:10;;;;;;;20.15;15.32;;;13.70;99.90;;;;;;5031786;28;20252;-65
2023/05/02 01:00:48;;;;;;;18.52;14.48;;;13.60;99.90;;;;;;5031366;28;20246;-64
2023/05/02 01:03:33;;;;;;;20.05;15.40;;;13.60;99.90;;;;;;5037317;28;20193;-65
2023/05/02 01:06:43;;;;;;;16.80;14.68;;;13.60;99.90;;;;;;5030750;28;20285;-64
2023/05/02 01:09:40;;;;;;;18.42;15.48;;;13.60;99.90;;;;;;5050908;28;20198;-67
2023/05/02 01:12:51;;;;;;;18.48;14.80;;;13.60;99.90;;;;;;5041871;28;20230;-65
2023/05/02 01:15:24;;;;;;;17.40;14.38;;;13.50;99.90;;;;;;5012379;28;20246;-65
2023/05/02 01:17:55;;;;;;;17.50;14.80;;;13.50;99.90;;;;;;5015630;28;20220;-65
2023/05/02 01:20:27;;;;;;;19.13;15.85;;;13.50;99.90;;;;;;5035646;28;20240;-65
2023/05/02 01:22:57;;;;;;;16.58;14.77;;;13.50;99.90;;;;;;5025037;28;20460;-65
2023/05/02 01:25:39;;;;;;;20.88;16.55;;;13.50;99.90;;;;;;5038138;28;20198;-65
2023/05/02 01:28:40;;;;;;;21.17;17.42;;;13.40;99.90;;;;;;5046720;28;20199;-65
2023/05/02 01:31:12;;;;;;;19.83;15.48;;;13.50;99.90;;;;;;5026454;28;20187;-65
2023/05/02 01:33:40;;;;;;;20.08;16.15;;;13.40;99.90;;;;;;5035888;28;20205;-65
2023/05/02 01:36:09;;;;;;;19.23;15.57;;;13.40;99.90;;;;;;5034585;28;20224;-65
2023/05/02 01:38:36;;;;;;;21.08;17.40;;;13.40;99.90;;;;;;5042226;28;20200;-64
2023/05/02 01:41:06;;;;;;;20.17;16.02;;;13.40;99.90;;;;;;5035792;28;20178;-65
2023/05/02 01:43:33;;;;;;;17.20;14.35;;;13.30;99.90;;;;;;5035722;28;20181;-65
2023/05/02 01:46:01;;;;;;;16.88;14.10;;;13.30;99.90;;;;;;5035894;28;20212;-65
2023/05/02 01:48:27;;;;;;;19.88;15.27;;;13.30;99.90;;;;;;5035704;28;20198;-65
2023/05/02 01:50:56;;;;;;;18.13;14.48;;;13.30;99.90;;;;;;5035444;28;20297;-65
2023/05/02 01:53:24;;;;;;;16.98;13.75;;;13.40;99.90;;;;;;5045860;28;20194;-65
2023/05/02 01:55:52;;;;;;;20.35;16.10;;;13.30;99.90;;;;;;5035975;28;20204;-65
2023/05/02 01:58:20;;;;;;;24.45;18.60;;;13.30;99.90;;;;;;5040253;28;20188;-65
2023/05/02 02:00:46;;;;;;;22.67;17.67;;;13.30;99.90;;;;;;5053130;28;20197;-65
2023/05/02 02:03:13;;;;;;;22.45;17.33;;;13.30;99.90;;;;;;5049138;28;20261;-64
2023/05/02 02:05:40;;;;;;;22.63;17.45;;;13.30;99.90;;;;;;5031558;28;20205;-65
2023/05/02 02:08:06;;;;;;;22.77;17.52;;;13.20;99.90;;;;;;5042210;28;20199;-65
2023/05/02 02:10:39;;;;;;;22.10;17.27;;;13.20;99.90;;;;;;5022178;28;20167;-64
2023/05/02 02:13:33;;;;;;;24.90;18.92;;;13.30;99.90;;;;;;5026555;28;20280;-67
2023/05/02 02:16:02;;;;;;;25.33;18.90;;;13.20;99.90;;;;;;5037849;28;20186;-67
2023/05/02 02:18:33;;;;;;;25.90;20.02;;;13.10;99.90;;;;;;5040698;28;20188;-65
2023/05/02 02:21:01;;;;;;;24.98;18.83;;;13.20;99.90;;;;;;5027045;28;20177;-67
2023/05/02 02:23:31;;;;;;;29.92;21.23;;;13.10;99.90;;;;;;5026646;28;20269;-67
2023/05/02 02:25:59;;;;;;;29.70;21.85;;;13.20;99.90;;;;;;5030984;28;20206;-65
2023/05/02 02:28:25;;;;;;;28.35;20.80;;;13.00;99.90;;;;;;5034672;28;20202;-67
2023/05/02 02:30:51;;;;;;;29.95;21.27;;;13.10;99.90;;;;;;5030673;28;20185;-66
2023/05/02 02:33:18;;;;;;;28.55;19.55;;;13.00;99.90;;;;;;5027315;28;20182;-66
2023/05/02 02:35:51;;;;;;;26.05;18.90;;;13.00;99.90;;;;;;5018855;28;20175;-67
2023/05/02 02:38:30;;;;;;;22.10;17.23;;;13.00;99.90;;;;;;5027306;28;20187;-66
2023/05/02 02:41:13;;;;;;;25.40;19.02;;;13.00;99.90;;;;;;5037718;28;20193;-67
2023/05/02 02:44:01;;;;;;;27.85;20.42;;;13.00;99.90;;;;;;5031472;28;20216;-67
2023/05/02 02:46:49;;;;;;;28.98;20.45;;;13.00;99.90;;;;;;5034147;28;20182;-67
2023/05/02 02:49:43;;;;;;;29.30;21.17;;;13.00;99.90;;;;;;5027590;28;20206;-67
2023/05/02 02:52:12;;;;;;;26.83;19.83;;;13.00;99.90;;;;;;5028575;28;20247;-67
2023/05/02 02:55:05;;;;;;;25.83;19.70;;;12.90;99.90;;;;;;5031732;28;20253;-67
2023/05/02 02:57:33;;;;;;;24.58;18.13;;;12.90;99.90;;;;;;5023339;28;20275;-66
2023/05/02 03:00:11;;;;;;;23.35;17.63;;;12.90;99.90;;;;;;5033617;28;20173;-67
2023/05/02 03:02:41;;;;;;;21.42;16.88;;;12.90;99.90;;;;;;5034936;28;20189;-66
2023/05/02 03:05:09;;;;;;;23.77;17.23;;;12.90;99.90;;;;;;5033799;28;20194;-67
2023/05/02 03:07:35;;;;;;;27.85;20.38;;;12.90;99.90;;;;;;5033328;28;20216;-66
2023/05/02 03:10:06;;;;;;;24.35;18.30;;;12.90;99.90;;;;;;5026331;28;20174;-66
2023/05/02 03:12:34;;;;;;;28.77;20.13;;;12.90;99.90;;;;;;5033540;28;20166;-66
2023/05/02 03:15:12;;;;;;;29.05;20.73;;;12.80;99.90;;;;;;5022643;28;20171;-66
2023/05/02 03:17:40;;;;;;;23.98;18.30;;;12.80;99.90;;;;;;5028083;28;20565;-67
2023/05/02 03:20:06;;;;;;;28.15;19.05;;;12.70;99.90;;;;;;5034047;28;20184;-66
2023/05/02 03:22:32;;;;;;;27.70;19.20;;;12.70;99.90;;;;;;5033491;28;20189;-65
2023/05/02 03:24:57;;;;;;;26.42;18.95;;;12.70;99.90;;;;;;5034548;28;20216;-67
2023/05/02 03:27:25;;;;;;;27.05;18.85;;;12.70;99.90;;;;;;5032572;28;20273;-66
2023/05/02 03:29:51;;;;;;;27.33;18.60;;;12.70;99.90;;;;;;5032133;28;20170;-65
2023/05/02 03:32:16;;;;;;;25.38;18.33;;;12.60;99.90;;;;;;5033082;28;20287;-66
2023/05/02 03:34:42;;;;;;;27.77;19.17;;;12.70;99.90;;;;;;5034264;28;20249;-67
2023/05/02 03:37:08;;;;;;;27.63;19.25;;;12.60;99.90;;;;;;5026940;28;20179;-67
2023/05/02 03:39:36;;;;;;;25.83;18.35;;;12.60;99.90;;;;;;5031862;28;20194;-67
2023/05/02 03:42:04;;;;;;;29.02;19.77;;;12.60;99.90;;;;;;5032532;28;20170;-63
2023/05/02 03:44:30;;;;;;;26.02;17.98;;;12.60;99.90;;;;;;5032563;28;20174;-66
2023/05/02 03:46:57;;;;;;;26.20;17.98;;;12.60;99.90;;;;;;5028850;28;20194;-67
2023/05/02 03:49:23;;;;;;;27.23;18.73;;;12.60;99.90;;;;;;5025373;28;20243;-64
2023/05/02 03:51:48;;;;;;;26.33;17.65;;;12.60;99.90;;;;;;5034327;28;20276;-64
2023/05/02 03:54:14;;;;;;;25.90;17.52;;;12.50;99.90;;;;;;5030537;28;20228;-66
2023/05/02 03:56:40;;;;;;;22.73;16.63;;;12.50;99.90;;;;;;5031958;28;20202;-66
2023/05/02 03:59:05;;;;;;;24.30;16.02;;;12.50;99.90;;;;;;5030903;28;20618;-66
2023/05/02 04:01:36;;;;;;;27.25;16.30;;;12.50;99.90;;;;;;5023466;28;20357;-67
2023/05/02 04:04:04;;;;;;;24.25;15.90;;;12.50;99.90;;;;;;5029342;28;20174;-65
2023/05/02 04:06:30;;;;;;;22.92;15.88;;;12.50;99.90;;;;;;5035714;28;20171;-67
2023/05/02 04:08:58;;;;;;;23.08;15.77;;;12.50;99.90;;;;;;5037222;28;20190;-67
2023/05/02 04:11:26;;;;;;;24.20;16.23;;;12.50;99.90;;;;;;5038504;28;20162;-62
2023/05/02 04:13:51;;;;;;;25.55;15.82;;;12.50;99.90;;;;;;5034255;28;20218;-64
2023/05/02 04:16:17;;;;;;;25.95;17.42;;;12.50;99.90;;;;;;5030299;28;20275;-65
2023/05/02 04:18:43;;;;;;;24.55;16.33;;;12.50;99.90;;;;;;5037244;28;20189;-65
2023/05/02 04:21:10;;;;;;;24.65;16.05;;;12.50;99.90;;;;;;5044144;28;20241;-65
2023/05/02 04:23:36;;;;;;;23.65;15.90;;;12.50;99.90;;;;;;5037384;28;20178;-66
2023/05/02 04:26:02;;;;;;;24.48;15.43;;;12.50;99.90;;;;;;5037711;28;20178;-60
2023/05/02 04:28:28;;;;;;;23.67;15.63;;;12.50;99.90;;;;;;5019926;28;20264;-65
2023/05/02 04:30:56;;;;;;;23.05;15.38;;;12.50;99.90;;;;;;5019393;28;20186;-65
2023/05/02 04:33:22;;;;;;;24.10;15.40;;;12.60;99.90;;;;;;5028688;28;20193;-65
2023/05/02 04:35:51;;;;;;;21.58;14.23;;;12.60;99.90;;;;;;5022658;28;20253;-65
2023/05/02 04:38:17;;;;;;;19.15;13.07;;;12.60;99.90;;;;;;5026777;28;20178;-65
2023/05/02 04:40:45;;;;;;;21.33;14.05;;;12.60;99.90;;;;;;5030376;28;20188;-63
2023/05/02 04:43:10;;;;;;;20.60;13.48;;;12.70;99.90;;;;;;5053515;28;20194;-65
2023/05/02 04:45:36;;;;;;;21.00;13.75;;;12.70;99.90;;;;;;5038663;28;20181;-65
2023/05/02 04:48:02;;;;;;;21.13;13.70;;;12.70;99.90;;;;;;5037621;28;20566;-62
2023/05/02 04:50:31;;;;;;;18.85;13.13;;;12.70;99.90;;;;;;5035652;28;20284;-65
2023/05/02 04:52:57;;;;;;;20.00;13.73;;;12.70;99.90;;;;;;5038616;28;20197;-65
2023/05/02 04:55:22;;;;;;;18.90;13.15;;;12.70;99.90;;;;;;5042495;28;20174;-64
2023/05/02 04:57:50;;;;;;;20.00;13.40;;;12.70;99.90;;;;;;5038906;28;20304;-65
2023/05/02 05:00:16;;;;;;;19.08;12.65;;;12.80;99.90;;;;;;5032105;28;20183;-65
2023/05/02 05:02:42;;;;;;;19.92;12.63;;;12.80;99.90;;;;;;5031785;28;20184;-64
2023/05/02 05:05:07;;;;;;;21.15;13.63;;;12.80;99.90;;;;;;5031007;28;20190;-64
2023/05/02 05:07:33;;;;;;;21.17;14.18;;;12.80;99.90;;;;;;5028348;28;20210;-65
2023/05/02 05:10:01;;;;;;;21.38;13.88;;;12.80;99.90;;;;;;5032799;28;20170;-65
2023/05/02 05:12:29;;;;;;;20.75;13.82;;;12.80;99.90;;;;;;5033770;28;20201;-64
2023/05/02 05:14:54;;;;;;;21.15;13.73;;;12.80;99.90;;;;;;5029461;28;20178;-65
2023/05/02 05:17:21;;;;;;;21.40;14.30;;;12.80;99.90;;;;;;5029832;28;20213;-63
2023/05/02 05:19:49;;;;;;;21.90;15.05;;;12.80;99.90;;;;;;5033630;28;20272;-62
2023/05/02 05:22:15;;;;;;;25.10;15.43;;;12.70;99.90;;;;;;5030586;28;20170;-65
2023/05/02 05:24:40;;;;;;;22.88;15.18;;;12.70;99.90;;;;;;5035330;28;20244;-66
2023/05/02 05:27:06;;;;;;;23.05;15.10;;;12.70;99.90;;;;;;5032721;28;20182;-63
2023/05/02 05:29:32;;;;;;;24.73;16.75;;;12.70;99.90;;;;;;5032234;28;20182;-66
2023/05/02 05:32:15;;;;;;;25.13;16.70;;;12.70;99.90;;;;;;5109394;27;20588;-66
2023/05/02 05:34:41;;;;;;;24.25;17.80;;;12.70;99.90;;;;;;5131699;27;20252;-66
2023/05/02 05:37:07;;;;;;;24.25;17.30;;;12.70;99.90;;;;;;5098029;28;20168;-65
2023/05/02 05:39:32;;;;;;;25.52;17.35;;;12.70;99.90;;;;;;5130789;27;20201;-66
2023/05/02 05:42:01;;;;;;;24.52;17.08;;;12.60;99.90;;;;;;5112732;28;20416;-66
2023/05/02 05:44:27;;;;;;;24.70;16.10;;;12.60;99.90;;;;;;5092076;28;20257;-66
2023/05/02 05:46:55;;;;;;;25.60;17.00;;;12.60;99.90;;;;;;5093083;28;20207;-66
2023/05/02 05:49:23;;;;;;;25.38;17.75;;;12.60;99.90;;;;;;5106745;28;20175;-67
2023/05/02 05:51:48;;;;;;;26.05;17.65;;;12.60;99.90;;;;;;5111028;28;20282;-66
2023/05/02 05:54:19;;;;;;;26.25;18.02;;;12.60;99.90;;;;;;5111624;28;20227;-66
2023/05/02 05:56:45;;;;;;;23.98;17.00;;;12.60;99.90;;;;;;5107421;28;20194;-66
2023/05/02 05:59:13;;;;;;;26.17;15.20;;;12.70;99.90;;;;;;5105814;28;20176;-66
2023/05/02 06:01:42;;;;;;;24.30;14.90;;;12.70;99.90;;;;;;5107372;28;20232;-66
2023/05/02 06:04:10;;;;;;;21.48;14.90;;;12.70;99.90;;;;;;5110995;28;20179;-66
2023/05/02 06:06:36;;;;;;;22.70;15.23;;;12.70;99.90;;;;;;5111118;28;20195;-65
2023/05/02 06:09:04;;;;;;;23.13;14.50;;;12.70;99.90;;;;;;5111410;28;20182;-66
2023/05/02 06:11:30;;;;;;;22.00;14.57;;;12.80;99.90;;;;;;5111291;28;20252;-66
2023/05/02 06:13:56;;;;;;;24.83;14.57;;;12.80;99.90;;;;;;5110921;28;20203;-65
2023/05/02 06:16:21;;;;;;;20.50;13.80;;;12.80;99.90;;;;;;5110995;28;20167;-67
2023/05/02 06:18:49;;;;;;;22.00;14.40;;;12.90;99.90;;;;;;5110241;28;20167;-65
2023/05/02 06:21:20;;;;;;;21.33;13.48;;;12.90;99.90;;;;;;5111025;28;20179;-67
2023/05/02 06:23:45;;;;;;;20.52;14.00;;;12.80;99.90;;;;;;5111118;28;20205;-66
2023/05/02 06:26:11;;;;;;;20.50;13.38;;;12.90;99.90;;;;;;5116968;28;20179;-66
2023/05/02 06:28:37;;;;;;;17.40;12.35;;;12.90;99.90;;;;;;5121871;28;20163;-66
2023/05/02 06:31:04;;;;;;;22.00;14.02;;;12.90;99.90;;;;;;5126032;27;20204;-66
2023/05/02 06:33:31;;;;;;;21.92;13.38;;;12.90;99.90;;;;;;5106036;28;20192;-66
2023/05/02 06:36:00;;;;;;;20.35;12.88;;;12.90;99.90;;;;;;5104536;28;20172;-63
2023/05/02 06:38:25;;;;;;;19.65;13.25;;;13.00;99.90;;;;;;5106479;28;20172;-67
2023/05/02 06:40:53;;;;;;;19.83;12.88;;;13.00;99.90;;;;;;5106055;28;20215;-67
2023/05/02 06:43:19;;;;;;;18.38;12.68;;;13.00;99.90;;;;;;5096094;28;20229;-63
2023/05/02 06:45:48;;;;;;;17.98;12.23;;;13.00;99.90;;;;;;5114360;27;20196;-65
2023/05/02 06:48:15;;;;;;;19.02;13.27;;;13.00;99.90;;;;;;5101267;28;20241;-65
2023/05/02 06:50:43;;;;;;;18.70;13.77;;;13.00;99.90;;;;;;5106060;28;20232;-66
2023/05/02 06:53:14;;;;;;;21.23;12.40;;;12.90;99.90;;;;;;5081824;28;20173;-64
2023/05/02 06:55:39;;;;;;;17.77;11.57;;;12.90;99.90;;;;;;5088947;28;20229;-66
2023/05/02 06:58:07;;;;;;;18.02;11.55;;;12.90;99.90;;;;;;5079314;28;20255;-66
2023/05/02 07:00:33;;;;;;;17.05;11.40;;;12.90;99.90;;;;;;5094239;28;20260;-66
2023/05/02 07:03:01;;;;;;;17.55;11.50;;;12.90;99.90;;;;;;5114416;27;20219;-66
2023/05/02 07:05:27;;;;;;;19.42;12.23;;;12.90;99.90;;;;;;5089694;28;20204;-66
2023/05/02 07:07:53;;;;;;;19.02;12.00;;;12.90;99.90;;;;;;5085906;28;20188;-63
2023/05/02 07:10:19;;;;;;;15.88;10.88;;;12.80;99.90;;;;;;5095555;28;20210;-66
2023/05/02 07:12:44;;;;;;;17.25;11.23;;;12.80;99.90;;;;;;5111785;27;20211;-67
2023/05/02 07:15:12;;;;;;;17.05;11.10;;;12.90;99.90;;;;;;5092299;28;20196;-66
2023/05/02 07:17:43;;;;;;;17.27;11.20;;;12.80;99.90;;;;;;5076094;28;20373;-66
2023/05/02 07:20:11;;;;;;;14.02;9.27;;;12.80;99.90;;;;;;5076180;28;20238;-66
2023/05/02 07:22:37;;;;;;;15.93;10.80;;;12.80;99.90;;;;;;5113554;27;20177;-67
2023/05/02 07:25:03;;;;;;;13.77;9.63;;;12.80;99.90;;;;;;5085629;28;20198;-67
2023/05/02 07:27:31;;;;;;;14.00;9.40;;;12.70;99.90;;;;;;5093817;28;20179;-66
2023/05/02 07:29:59;;;;;;;13.73;8.90;;;12.70;99.90;;;;;;5091382;28;20195;-66
2023/05/02 07:32:25;;;;;;;12.88;8.75;;;12.70;99.90;;;;;;5078494;28;20177;-66
2023/05/02 07:34:53;;;;;;;13.18;9.27;;;12.60;99.90;;;;;;5095959;28;20199;-66
2023/05/02 07:37:22;;;;;;;16.83;9.85;;;12.60;99.90;;;;;;5099639;28;20169;-67
2023/05/02 07:39:47;;;;;;;16.25;9.15;;;12.60;99.90;;;;;;5085729;28;20174;-66
2023/05/02 07:42:13;;;;;;;14.82;9.48;;;12.60;99.90;;;;;;5116505;28;20195;-67
2023/05/02 07:44:39;;;;;;;12.23;9.35;;;12.50;99.90;;;;;;5102873;28;20176;-66
2023/05/02 07:47:05;;;;;;;12.80;9.32;;;12.60;99.90;;;;;;5092450;28;20269;-66
2023/05/02 07:49:30;;;;;;;14.57;10.48;;;12.50;99.90;;;;;;5095952;28;20249;-67
2023/05/02 07:51:57;;;;;;;14.85;10.20;;;12.50;99.90;;;;;;5096117;28;20211;-66
2023/05/02 07:54:25;;;;;;;13.32;9.77;;;12.50;99.90;;;;;;5090380;28;20180;-67
2023/05/02 07:56:50;;;;;;;16.15;10.57;;;12.50;99.90;;;;;;5109285;28;20287;-66
2023/05/02 07:59:20;;;;;;;13.20;9.65;;;12.50;99.90;;;;;;5082234;28;20200;-67
2023/05/02 08:01:46;;;;;;;12.73;9.38;;;12.50;99.90;;;;;;5075696;28;20295;-67
2023/05/02 08:04:12;;;;;;;10.65;7.72;;;12.50;99.90;;;;;;5075357;28;20175;-66
2023/05/02 08:06:37;;;;;;;13.05;8.82;;;12.60;99.90;;;;;;5084797;28;20206;-67
2023/05/02 08:09:03;;;;;;;14.50;9.55;;;12.60;99.90;;;;;;5116194;28;20175;-67
2023/05/02 08:11:29;;;;;;;13.57;10.05;;;12.60;99.90;;;;;;5110919;28;20242;-66
2023/05/02 08:13:54;;;;;;;12.65;8.93;;;12.70;99.90;;;;;;5095917;28;20172;-66
2023/05/02 08:16:20;;;;;;;15.50;10.10;;;12.70;99.90;;;;;;5095308;28;20333;-65
2023/05/02 08:18:46;;;;;;;13.07;9.40;;;12.70;99.90;;;;;;5082602;28;20169;-67
2023/05/02 08:21:12;;;;;;;15.00;10.30;;;12.60;99.90;;;;;;5095367;28;20176;-67
2023/05/02 08:23:45;;;;;;;15.18;10.25;;;12.60;99.90;;;;;;5095550;28;20168;-66
2023/05/02 08:26:13;;;;;;;13.80;10.18;;;12.60;99.90;;;;;;5095054;28;20191;-66
2023/05/02 08:28:41;;;;;;;12.43;8.93;;;12.60;99.90;;;;;;5093930;28;20242;-67
2023/05/02 08:31:06;;;;;;;11.40;8.85;;;12.60;99.90;;;;;;5104065;28;20207;-67
2023/05/02 08:33:32;;;;;;;11.77;8.65;;;12.60;99.90;;;;;;5095716;28;20224;-66
2023/05/02 08:35:59;;;;;;;13.30;8.02;;;12.70;99.90;;;;;;5104430;28;20168;-66
2023/05/02 08:38:27;;;;;;;11.57;7.63;;;12.70;99.90;;;;;;5074541;28;20203;-66
2023/05/02 08:40:52;;;;;;;10.35;7.10;;;12.80;99.90;;;;;;5108613;27;20177;-66
2023/05/02 08:43:21;;;;;;;13.18;9.90;;;12.80;99.90;;;;;;5093718;28;20190;-67
2023/05/02 08:45:51;;;;;;;14.02;10.05;;;12.80;99.90;;;;;;5074844;28;20176;-66
2023/05/02 08:48:17;;;;;;;12.80;9.55;;;12.90;99.90;;;;;;5092810;28;20212;-66
2023/05/02 08:50:47;;;;;;;15.20;10.55;;;12.90;99.90;;;;;;5075508;28;20207;-66
2023/05/02 08:53:13;;;;;;;16.10;10.25;;;12.90;99.90;;;;;;5080431;28;20175;-67
2023/05/02 08:55:42;;;;;;;14.80;10.45;;;12.90;99.90;;;;;;5099355;28;20166;-67
2023/05/02 08:58:09;;;;;;;16.42;10.88;;;12.90;99.90;;;;;;5097029;28;20191;-67
2023/05/02 09:00:40;;;;;;;16.20;11.60;;;12.90;99.90;;;;;;5091548;28;20172;-67
2023/05/02 09:03:15;;;;;;;18.95;10.93;;;12.90;99.90;;;;;;5093760;28;20302;-66
2023/05/02 09:05:41;;;;;;;14.13;10.73;;;12.90;99.90;;;;;;5086584;28;20204;-67
2023/05/02 09:08:08;;;;;;;16.17;10.55;;;12.90;99.90;;;;;;5080600;28;20191;-67
2023/05/02 09:10:37;;;;;;;17.20;11.57;;;12.90;99.90;;;;;;5079402;28;20278;-66
2023/05/02 09:13:42;;;;;;;14.45;10.52;;;12.90;99.90;;;;;;5081239;28;20220;-67
2023/05/02 09:16:09;;;;;;;13.98;10.23;;;13.00;99.90;;;;;;4996614;28;20179;-66
2023/05/02 09:18:47;;;;;;;14.65;10.98;;;13.00;99.90;;;;;;5029579;28;20171;-66
2023/05/02 09:21:20;;;;;;;16.85;11.27;;;13.00;99.90;;;;;;5046490;28;20240;-66
2023/05/02 09:23:48;;;;;;;15.00;11.00;;;13.00;99.90;;;;;;5082657;28;20234;-66
2023/05/02 09:26:31;;;;;;;14.43;10.75;;;13.10;99.90;;;;;;5108056;28;20192;-66
2023/05/02 09:29:00;;;;;;;18.10;12.13;;;13.20;99.90;;;;;;5082090;28;20245;-66
2023/05/02 09:31:33;;;;;;;16.67;11.93;;;13.20;99.90;;;;;;5077510;28;20204;-66
2023/05/02 09:34:09;;;;;;;15.93;11.07;;;13.30;99.90;;;;;;5081753;28;20192;-66
2023/05/02 09:36:43;;;;;;;13.60;10.63;;;13.50;99.90;;;;;;5082353;28;20175;-66
2023/05/02 09:39:14;;;;;;;13.95;10.55;;;13.60;99.90;;;;;;5116856;28;20172;-65
2023/05/02 09:41:45;;;;;;;15.52;10.57;;;13.80;99.90;;;;;;5103305;28;20208;-66
2023/05/02 09:44:15;;;;;;;12.63;9.15;;;13.90;99.90;;;;;;5112660;28;20160;-65
2023/05/02 09:46:49;;;;;;;11.35;9.02;;;14.00;99.90;;;;;;5107995;28;20195;-67
2023/05/02 09:49:18;;;;;;;11.45;7.97;;;14.10;99.90;;;;;;5094014;28;20188;-65
2023/05/02 09:51:46;;;;;;;9.43;7.43;;;14.10;99.90;;;;;;5094481;28;20279;-66
2023/05/02 09:54:35;;;;;;;9.15;6.20;;;14.20;99.90;;;;;;5106040;28;20205;-66
2023/05/02 09:57:01;;;;;;;7.28;4.93;;;14.20;99.90;;;;;;5074249;28;20168;-64
2023/05/02 09:59:29;;;;;;;6.15;3.83;;;14.20;99.90;;;;;;5084914;28;20169;-65
2023/05/02 10:02:06;;;;;;;3.78;2.78;;;14.10;99.90;;;;;;5092193;28;20254;-67
2023/05/02 10:04:33;;;;;;;4.35;2.83;;;14.10;99.90;;;;;;5094443;28;20164;-66
2023/05/02 10:07:00;;;;;;;4.68;2.50;;;14.10;99.90;;;;;;5083429;28;20177;-66
2023/05/02 10:09:27;;;;;;;4.72;2.30;;;14.00;99.90;;;;;;5074629;28;20527;-72
2023/05/02 10:11:55;;;;;;;6.28;4.30;;;14.00;99.90;;;;;;5090063;28;20207;-78
2023/05/02 10:14:22;;;;;;;7.18;4.78;;;14.00;99.90;;;;;;5094479;28;20203;-77
2023/05/02 10:17:01;;;;;;;9.23;6.45;;;14.00;99.90;;;;;;5085656;28;20180;-77
2023/05/02 10:19:38;;;;;;;8.50;6.30;;;13.90;99.90;;;;;;5096133;28;20288;-78
2023/05/02 10:22:04;;;;;;;9.10;6.45;;;13.90;99.90;;;;;;5097333;28;20199;-78
2023/05/02 10:24:36;;;;;;;8.40;6.93;;;13.90;99.90;;;;;;5088569;28;20175;-77
2023/05/02 10:27:04;;;;;;;10.55;7.57;;;13.90;99.90;;;;;;5101741;28;20188;-76
2023/05/02 10:29:36;;;;;;;9.45;8.23;;;13.90;99.90;;;;;;5102218;28;20200;-79
2023/05/02 10:32:05;;;;;;;10.55;8.60;;;14.00;99.90;;;;;;5096591;28;20208;-77
2023/05/02 10:34:32;;;;;;;10.90;9.00;;;14.10;99.90;;;;;;5096525;28;20169;-76
2023/05/02 10:37:01;;;;;;;11.05;9.02;;;14.10;99.90;;;;;;5098287;28;20183;-79
2023/05/02 10:39:27;;;;;;;12.85;9.35;;;14.20;99.90;;;;;;5089971;28;20263;-79
2023/05/02 10:41:58;;;;;;;12.65;8.57;;;14.20;99.90;;;;;;5089904;28;20224;-78
2023/05/02 10:44:43;;;;;;;11.88;8.45;;;14.20;99.90;;;;;;5112032;27;20202;-77
2023/05/02 10:47:25;;;;;;;12.05;9.00;;;14.30;99.90;;;;;;5078793;28;20267;-77
2023/05/02 10:49:55;;;;;;;10.85;8.98;;;14.40;99.90;;;;;;5090902;28;20278;-78
2023/05/02 10:52:29;;;;;;;10.70;9.57;;;14.40;99.90;;;;;;5100556;28;20275;-78
2023/05/02 10:55:21;;;;;;;12.93;9.82;;;14.60;99.90;;;;;;5087074;28;20172;-79
2023/05/02 10:58:06;;;;;;;10.38;9.27;;;14.70;99.90;;;;;;5089483;28;20169;-79
2023/05/02 11:00:33;;;;;;;14.15;11.38;;;14.80;99.90;;;;;;5073368;28;20175;-75
2023/05/02 11:02:59;;;;;;;13.55;10.38;;;15.00;99.90;;;;;;5077407;28;20208;-78
2023/05/02 11:05:26;;;;;;;13.45;11.05;;;15.10;99.90;;;;;;5095259;28;20168;-76
2023/05/02 11:08:14;;;;;;;11.43;9.70;;;15.10;99.90;;;;;;5091622;28;20261;-79
2023/05/02 11:10:39;;;;;;;10.48;9.35;;;15.20;99.90;;;;;;5079724;28;20196;-74
2023/05/02 11:13:08;;;;;;;10.52;9.45;;;15.20;99.90;;;;;;5106144;28;20172;-77
2023/05/02 11:15:39;;;;;;;9.88;8.88;;;15.30;99.90;;;;;;5095671;28;20186;-78
2023/05/02 11:18:08;;;;;;;10.55;8.18;;;15.30;99.90;;;;;;5091898;28;20183;-78
2023/05/02 11:20:39;;;;;;;9.70;8.48;;;15.30;99.90;;;;;;5083152;28;20175;-78
2023/05/02 11:23:20;;;;;;;11.05;8.35;;;15.30;99.90;;;;;;5087679;28;20263;-80
2023/05/02 11:25:49;;;;;;;11.13;8.68;;;15.30;99.90;;;;;;5080494;28;20190;-78
2023/05/02 11:28:36;;;;;;;10.57;8.68;;;15.30;99.90;;;;;;5111825;27;20184;-79
2023/05/02 11:31:07;;;;;;;10.70;8.38;;;15.40;99.90;;;;;;5082194;28;20281;-79
2023/05/02 11:33:33;;;;;;;9.23;7.45;;;15.40;99.90;;;;;;5082443;28;20271;-80
2023/05/02 11:35:58;;;;;;;8.40;7.50;;;15.40;99.90;;;;;;5093184;28;20163;-75
2023/05/02 11:38:26;;;;;;;7.90;7.15;;;15.40;99.90;;;;;;5094797;28;20176;-78
2023/05/02 11:40:58;;;;;;;8.80;7.35;;;15.40;99.90;;;;;;5095293;28;20498;-74
2023/05/02 11:43:27;;;;;;;9.05;7.40;;;15.40;99.90;;;;;;5095726;28;20229;-79
2023/05/02 11:45:54;;;;;;;9.77;7.97;;;15.50;99.90;;;;;;5082445;28;20250;-77
2023/05/02 11:48:21;;;;;;;9.60;8.13;;;15.50;99.90;;;;;;5075463;28;20168;-77
2023/05/02 11:50:51;;;;;;;10.18;9.18;;;15.50;99.90;;;;;;5106407;28;20207;-76
2023/05/02 11:53:30;;;;;;;11.32;8.20;;;15.50;99.90;;;;;;5102977;28;20172;-78
2023/05/02 11:56:03;;;;;;;8.68;7.40;;;15.40;99.90;;;;;;5092141;28;20252;-75
2023/05/02 11:58:34;;;;;;;8.45;7.15;;;15.40;99.90;;;;;;5086676;28;20204;-74
2023/05/02 12:01:12;;;;;;;9.93;6.85;;;15.40;99.90;;;;;;5095329;28;20210;-75
2023/05/02 12:03:37;;;;;;;7.18;5.97;;;15.40;99.90;;;;;;5109033;28;20186;-75
2023/05/02 12:06:14;;;;;;;8.02;5.47;;;15.40;99.90;;;;;;5115495;28;20500;-79
2023/05/02 12:08:42;;;;;;;8.35;6.43;;;15.50;99.90;;;;;;5098374;28;20230;-79
2023/05/02 12:11:15;;;;;;;8.45;5.90;;;15.70;99.90;;;;;;5095040;28;20200;-71
2023/05/02 12:13:50;;;;;;;8.00;5.95;;;15.80;99.90;;;;;;5075232;28;20214;-77
2023/05/02 12:16:17;;;;;;;8.85;6.70;;;16.00;99.90;;;;;;5083258;28;20171;-80
2023/05/02 12:18:44;;;;;;;7.63;6.82;;;16.20;99.90;;;;;;5095116;28;20168;-77
2023/05/02 12:21:10;;;;;;;8.98;7.45;;;16.30;99.90;;;;;;5102777;28;20170;-77
2023/05/02 12:23:36;;;;;;;7.93;7.13;;;16.40;99.90;;;;;;5095060;28;20183;-75
2023/05/02 12:26:20;;;;;;;8.13;7.32;;;16.30;99.90;;;;;;5096128;28;20208;-78
2023/05/02 12:28:50;;;;;;;7.97;7.07;;;16.40;99.90;;;;;;5090483;28;20211;-72
2023/05/02 12:31:15;;;;;;;10.15;7.93;;;16.30;99.90;;;;;;5085961;28;20207;-76
2023/05/02 12:33:49;;;;;;;9.65;8.07;;;16.30;99.90;;;;;;5096706;28;20164;-75
2023/05/02 12:36:15;;;;;;;9.55;8.57;;;16.30;99.90;;;;;;5075567;28;20176;-78
2023/05/02 12:39:07;;;;;;;9.75;8.75;;;16.20;99.90;;;;;;5100475;28;20227;-76
2023/05/02 12:41:44;;;;;;;9.95;8.18;;;16.20;99.90;;;;;;5083701;28;20249;-78
2023/05/02 12:44:10;;;;;;;11.35;7.90;;;16.20;99.90;;;;;;5114793;27;20251;-76